Time;durP1;ratioP1;P1;durP2;ratioP2;P2;SDS_P1;SDS_P2;PMS_P1;PMS_P2;Temp;Humidity;BMP_temperature;BMP_pressure;BME280_temperature;BME280_humidity;BME280_pressure;Samples;Min_cycle;Max_cycle;Signal;HPM_P1;HPM_P2
2024/04/05 00:01:22;;;;;;;2.20;1.33;;;15.30;99.90;;;;;;5083568;28;20312;-74
2024/04/05 00:03:48;;;;;;;1.73;1.63;;;15.30;99.90;;;;;;5084865;28;20192;-74
2024/04/05 00:06:13;;;;;;;0.30;0.20;;;15.30;99.90;;;;;;5085198;28;20578;-74
2024/04/05 00:08:39;;;;;;;0.30;0.20;;;15.20;99.90;;;;;;5085326;28;20638;-74
2024/04/05 00:11:05;;;;;;;0.30;0.20;;;15.20;99.90;;;;;;5083968;28;20689;-74
2024/04/05 00:13:31;;;;;;;0.97;0.97;;;15.20;99.90;;;;;;5086600;28;20399;-74
2024/04/05 00:15:57;;;;;;;0.40;0.30;;;15.10;99.90;;;;;;5088946;28;20441;-74
2024/04/05 00:18:22;;;;;;;0.60;0.60;;;15.10;99.90;;;;;;5088520;28;20265;-74
2024/04/05 00:20:48;;;;;;;0.30;0.30;;;15.10;99.90;;;;;;5088882;28;20184;-74
2024/04/05 00:23:14;;;;;;;0.30;0.20;;;15.10;99.90;;;;;;5087782;28;20197;-74
2024/04/05 00:25:41;;;;;;;0.40;0.40;;;15.10;99.90;;;;;;5088449;28;20948;-75
2024/04/05 00:28:06;;;;;;;0.30;0.30;;;15.10;99.90;;;;;;5088190;28;20188;-74
2024/04/05 00:30:32;;;;;;;1.37;1.30;;;15.10;99.90;;;;;;5087161;28;20936;-74
2024/04/05 00:32:58;;;;;;;0.47;0.47;;;15.10;99.90;;;;;;5088430;28;20275;-74
2024/04/05 00:35:23;;;;;;;0.30;0.20;;;15.20;99.90;;;;;;5087305;28;20168;-74
2024/04/05 00:37:50;;;;;;;0.40;0.40;;;15.10;99.90;;;;;;5088618;28;20418;-74
2024/04/05 00:40:16;;;;;;;0.40;0.30;;;15.10;99.90;;;;;;5087089;28;20419;-74
2024/04/05 00:42:41;;;;;;;1.10;1.03;;;15.10;99.90;;;;;;5088403;28;20472;-74
2024/04/05 00:45:07;;;;;;;0.30;0.20;;;15.10;99.90;;;;;;5088607;28;20172;-74
2024/04/05 00:47:33;;;;;;;0.40;0.40;;;15.10;99.90;;;;;;5087792;28;20203;-74
2024/04/05 00:50:00;;;;;;;2.03;1.90;;;15.20;99.90;;;;;;5087221;28;20181;-75
2024/04/05 00:52:27;;;;;;;0.80;0.47;;;15.20;99.90;;;;;;5086309;28;20448;-74
2024/04/05 00:54:54;;;;;;;0.50;0.50;;;15.20;99.90;;;;;;5088308;28;20894;-74
2024/04/05 00:57:20;;;;;;;0.30;0.20;;;15.30;99.90;;;;;;5087666;28;20456;-74
2024/04/05 00:59:46;;;;;;;0.30;0.20;;;15.30;99.90;;;;;;5087027;28;20977;-74
2024/04/05 01:02:12;;;;;;;0.30;0.30;;;15.40;99.90;;;;;;5087722;28;20481;-74
2024/04/05 01:04:38;;;;;;;0.30;0.20;;;15.50;99.90;;;;;;5087881;28;20802;-74
2024/04/05 01:07:04;;;;;;;0.77;0.77;;;15.50;99.90;;;;;;5086207;28;20520;-74
2024/04/05 01:09:31;;;;;;;0.30;0.20;;;15.60;99.90;;;;;;5088069;28;20412;-74
2024/04/05 01:11:57;;;;;;;0.60;0.40;;;15.60;99.90;;;;;;5087698;28;20211;-74
2024/04/05 01:14:23;;;;;;;0.40;0.40;;;15.60;99.90;;;;;;5086746;28;20799;-74
2024/04/05 01:16:48;;;;;;;0.30;0.20;;;15.70;99.90;;;;;;5086800;28;20414;-74
2024/04/05 01:19:16;;;;;;;0.40;0.40;;;15.70;99.90;;;;;;5087200;28;20208;-74
2024/04/05 01:21:50;;;;;;;0.50;0.50;;;15.70;99.90;;;;;;5087969;28;20219;-74
2024/04/05 01:24:16;;;;;;;0.30;0.30;;;15.70;99.90;;;;;;5086873;28;20702;-74
2024/04/05 01:26:41;;;;;;;0.30;0.30;;;15.70;99.90;;;;;;5085676;28;20874;-74
2024/04/05 01:29:07;;;;;;;0.30;0.20;;;15.70;99.90;;;;;;5085396;28;20749;-74
2024/04/05 01:31:32;;;;;;;0.30;0.20;;;15.70;99.90;;;;;;5086170;28;20685;-74
2024/04/05 01:33:58;;;;;;;1.70;0.60;;;15.70;99.90;;;;;;5085677;28;20256;-74
2024/04/05 01:36:24;;;;;;;0.30;0.20;;;15.70;99.90;;;;;;5086157;28;20695;-74
2024/04/05 01:38:49;;;;;;;0.40;0.40;;;15.70;99.90;;;;;;5085918;28;20525;-74
2024/04/05 01:41:15;;;;;;;2.20;2.10;;;15.70;99.90;;;;;;5085930;28;20239;-74
2024/04/05 01:43:41;;;;;;;0.57;0.57;;;15.70;99.90;;;;;;5087232;28;20647;-74
2024/04/05 01:46:07;;;;;;;0.47;0.47;;;15.70;99.90;;;;;;5087394;28;20681;-75
2024/04/05 01:48:32;;;;;;;0.90;0.50;;;15.50;99.90;;;;;;5087010;28;20227;-74
2024/04/05 01:50:58;;;;;;;0.77;0.77;;;15.50;99.90;;;;;;5087367;28;20698;-74
2024/04/05 01:53:23;;;;;;;0.30;0.20;;;15.40;99.90;;;;;;5085517;28;20595;-74
2024/04/05 01:55:49;;;;;;;0.40;0.40;;;15.30;99.90;;;;;;5085874;28;20234;-74
2024/04/05 01:58:15;;;;;;;0.30;0.20;;;15.20;99.90;;;;;;5084786;28;20239;-74
2024/04/05 02:00:41;;;;;;;0.30;0.20;;;15.10;99.90;;;;;;5087011;28;20571;-74
2024/04/05 02:03:06;;;;;;;0.30;0.20;;;15.10;99.90;;;;;;5086224;28;20580;-74
2024/04/05 02:05:32;;;;;;;0.30;0.20;;;15.10;99.90;;;;;;5085390;28;20180;-74
2024/04/05 02:07:57;;;;;;;0.30;0.30;;;15.00;99.90;;;;;;5087065;28;20338;-74
2024/04/05 02:10:23;;;;;;;0.30;0.20;;;15.00;99.90;;;;;;5086647;28;20179;-74
2024/04/05 02:12:48;;;;;;;0.50;0.50;;;15.00;99.90;;;;;;5086737;28;20196;-74
2024/04/05 02:15:14;;;;;;;0.30;0.30;;;15.00;99.90;;;;;;5086501;28;20227;-74
2024/04/05 02:17:40;;;;;;;0.73;0.67;;;15.00;99.90;;;;;;5086742;28;20193;-75
2024/04/05 02:20:06;;;;;;;1.10;1.07;;;15.00;99.90;;;;;;5086722;28;20181;-74
2024/04/05 02:22:33;;;;;;;0.30;0.30;;;15.00;99.90;;;;;;5084742;28;20772;-74
2024/04/05 02:24:59;;;;;;;0.30;0.20;;;14.90;99.90;;;;;;5085107;28;20417;-74
2024/04/05 02:27:25;;;;;;;0.30;0.20;;;14.90;99.90;;;;;;5086238;28;20475;-74
2024/04/05 02:29:51;;;;;;;0.67;0.53;;;14.90;99.90;;;;;;5086679;28;20413;-74
2024/04/05 02:32:16;;;;;;;0.30;0.20;;;14.80;99.90;;;;;;5083749;28;20262;-74
2024/04/05 02:34:42;;;;;;;0.30;0.20;;;14.70;99.90;;;;;;5084516;28;20184;-74
2024/04/05 02:37:08;;;;;;;0.90;0.90;;;14.70;99.90;;;;;;5085937;28;20638;-74
2024/04/05 02:39:33;;;;;;;0.33;0.30;;;14.70;99.90;;;;;;5085339;28;20198;-75
2024/04/05 02:41:59;;;;;;;0.60;0.60;;;14.70;99.90;;;;;;5084575;28;20558;-74
2024/04/05 02:44:25;;;;;;;0.30;0.20;;;14.60;99.90;;;;;;5086192;28;20554;-74
2024/04/05 02:46:52;;;;;;;0.40;0.30;;;14.60;99.90;;;;;;5086535;28;20436;-75
2024/04/05 02:49:18;;;;;;;0.30;0.20;;;14.60;99.90;;;;;;5084360;28;20461;-74
2024/04/05 02:51:43;;;;;;;0.30;0.30;;;14.50;99.90;;;;;;5086272;28;20500;-74
2024/04/05 02:54:09;;;;;;;0.30;0.27;;;14.50;99.90;;;;;;5084108;28;20555;-74
2024/04/05 02:56:35;;;;;;;0.40;0.30;;;14.50;99.90;;;;;;5086183;28;20181;-74
2024/04/05 02:59:01;;;;;;;0.70;0.70;;;14.40;99.90;;;;;;5084157;28;20238;-74
2024/04/05 03:01:26;;;;;;;0.37;0.37;;;14.40;99.90;;;;;;5085959;28;20570;-75
2024/04/05 03:03:52;;;;;;;0.40;0.30;;;14.40;99.90;;;;;;5085686;28;20429;-74
2024/04/05 03:06:20;;;;;;;0.40;0.40;;;14.40;99.90;;;;;;5084329;28;20335;-74
2024/04/05 03:08:45;;;;;;;0.30;0.20;;;14.30;99.90;;;;;;5085837;28;20439;-74
2024/04/05 03:11:11;;;;;;;0.30;0.20;;;14.30;99.90;;;;;;5085950;28;20420;-75
2024/04/05 03:13:38;;;;;;;0.30;0.30;;;14.30;99.90;;;;;;5084498;28;20212;-74
2024/04/05 03:16:04;;;;;;;0.33;0.30;;;14.40;99.90;;;;;;5086024;28;20421;-74
2024/04/05 03:18:31;;;;;;;0.40;0.40;;;14.40;99.90;;;;;;5085458;28;20620;-74
2024/04/05 03:20:57;;;;;;;0.33;0.30;;;14.40;99.90;;;;;;5084558;28;20424;-74
2024/04/05 03:23:23;;;;;;;0.50;0.40;;;14.40;99.90;;;;;;5085635;28;21001;-74
2024/04/05 03:25:49;;;;;;;0.30;0.20;;;14.40;99.90;;;;;;5085973;28;20508;-74
2024/04/05 03:28:15;;;;;;;0.63;0.60;;;14.40;99.90;;;;;;5084898;28;20339;-74
2024/04/05 03:30:41;;;;;;;0.30;0.20;;;14.40;99.90;;;;;;5084578;28;20714;-74
2024/04/05 03:33:07;;;;;;;0.30;0.20;;;14.40;99.90;;;;;;5083049;28;20607;-74
2024/04/05 03:35:39;;;;;;;0.30;0.20;;;14.40;99.90;;;;;;5085767;28;20179;-74
2024/04/05 03:38:04;;;;;;;0.30;0.20;;;14.40;99.90;;;;;;5084226;28;20510;-74
2024/04/05 03:40:30;;;;;;;0.40;0.30;;;14.40;99.90;;;;;;5084118;28;20409;-74
2024/04/05 03:42:56;;;;;;;0.30;0.20;;;14.40;99.90;;;;;;5085512;28;20220;-75
2024/04/05 03:45:21;;;;;;;0.50;0.50;;;14.40;99.90;;;;;;5085584;28;20207;-75
2024/04/05 03:47:47;;;;;;;0.33;0.33;;;14.40;99.90;;;;;;5087946;28;20233;-75
2024/04/05 03:50:13;;;;;;;0.30;0.20;;;14.40;99.90;;;;;;5089786;28;20235;-75
2024/04/05 03:52:38;;;;;;;1.80;1.50;;;14.40;99.90;;;;;;5089628;28;20599;-76
2024/04/05 03:55:05;;;;;;;0.30;0.20;;;14.40;99.90;;;;;;5088226;28;20233;-74
2024/04/05 03:57:31;;;;;;;0.30;0.30;;;14.50;99.90;;;;;;5087278;28;20232;-74
2024/04/05 03:59:56;;;;;;;0.60;0.60;;;14.40;99.90;;;;;;5088205;28;20417;-74
2024/04/05 04:02:23;;;;;;;1.47;1.37;;;14.50;99.90;;;;;;5088745;28;20485;-74
2024/04/05 04:04:49;;;;;;;0.40;0.33;;;14.50;99.90;;;;;;5087897;28;20211;-76
2024/04/05 04:07:15;;;;;;;0.40;0.40;;;14.50;99.90;;;;;;5086461;28;20468;-76
2024/04/05 04:09:40;;;;;;;0.40;0.40;;;14.50;99.90;;;;;;5087409;28;20429;-75
2024/04/05 04:12:06;;;;;;;1.43;1.43;;;14.60;99.90;;;;;;5088732;28;20902;-75
2024/04/05 04:14:32;;;;;;;0.93;0.93;;;14.60;99.90;;;;;;5088776;28;20484;-75
2024/04/05 04:16:57;;;;;;;0.30;0.30;;;14.60;99.90;;;;;;5088882;28;20922;-75
2024/04/05 04:19:23;;;;;;;0.40;0.40;;;14.50;99.90;;;;;;5087642;28;20235;-75
2024/04/05 04:21:49;;;;;;;0.30;0.30;;;14.50;99.90;;;;;;5088473;28;20307;-76
2024/04/05 04:24:16;;;;;;;0.50;0.50;;;14.50;99.90;;;;;;5088351;28;20207;-76
2024/04/05 04:26:41;;;;;;;0.40;0.37;;;14.40;99.90;;;;;;5088644;28;20451;-74
2024/04/05 04:29:07;;;;;;;0.30;0.20;;;14.30;99.90;;;;;;5086752;28;20465;-75
2024/04/05 04:31:33;;;;;;;0.70;0.50;;;14.30;99.90;;;;;;5088722;28;20263;-74
2024/04/05 04:33:59;;;;;;;0.30;0.20;;;14.20;99.90;;;;;;5086750;28;20856;-75
2024/04/05 04:36:25;;;;;;;0.40;0.37;;;14.30;99.90;;;;;;5087854;28;20467;-74
2024/04/05 04:38:53;;;;;;;1.00;1.00;;;14.30;99.90;;;;;;5086619;28;20277;-74
2024/04/05 04:41:20;;;;;;;0.97;0.97;;;14.30;99.90;;;;;;5088219;28;20216;-75
2024/04/05 04:43:46;;;;;;;0.40;0.40;;;14.20;99.90;;;;;;5088091;28;20431;-75
2024/04/05 04:46:13;;;;;;;0.50;0.50;;;14.20;99.90;;;;;;5088247;28;20425;-75
2024/04/05 04:48:39;;;;;;;2.17;2.07;;;14.20;99.90;;;;;;5086437;28;20439;-75
2024/04/05 04:51:06;;;;;;;0.67;0.67;;;14.10;99.90;;;;;;5086516;28;20582;-75
2024/04/05 04:53:31;;;;;;;0.30;0.30;;;14.10;99.90;;;;;;5086435;28;20196;-75
2024/04/05 04:55:57;;;;;;;0.43;0.43;;;14.00;99.90;;;;;;5086741;28;20769;-75
2024/04/05 04:58:23;;;;;;;0.30;0.20;;;14.00;99.90;;;;;;5086140;28;20236;-75
2024/04/05 05:00:51;;;;;;;0.40;0.30;;;14.00;99.90;;;;;;5086783;28;20665;-75
2024/04/05 05:03:17;;;;;;;0.30;0.20;;;13.90;99.90;;;;;;5085830;28;20475;-75
2024/04/05 05:05:42;;;;;;;0.30;0.20;;;13.80;99.90;;;;;;5087516;28;20397;-75
2024/04/05 05:08:12;;;;;;;0.30;0.30;;;13.80;99.90;;;;;;5085860;28;20200;-75
2024/04/05 05:10:38;;;;;;;0.37;0.30;;;13.70;99.90;;;;;;5087390;28;20524;-76
2024/04/05 05:13:09;;;;;;;1.60;1.13;;;13.70;99.90;;;;;;5085868;28;20885;-76
2024/04/05 05:15:35;;;;;;;0.30;0.20;;;13.70;99.90;;;;;;5087268;28;20925;-75
2024/04/05 05:18:00;;;;;;;0.60;0.60;;;13.60;99.90;;;;;;5087364;28;20448;-76
2024/04/05 05:20:26;;;;;;;1.60;1.43;;;13.60;99.90;;;;;;5085713;28;20390;-75
2024/04/05 05:22:55;;;;;;;2.30;2.20;;;13.50;99.90;;;;;;5087091;28;20229;-75
2024/04/05 05:25:21;;;;;;;13.57;7.70;;;13.60;99.90;;;;;;5086719;28;20219;-76
2024/04/05 05:27:47;;;;;;;2.67;2.10;;;13.60;99.90;;;;;;5087127;28;20461;-75
2024/04/05 05:30:14;;;;;;;1.23;1.13;;;13.50;99.90;;;;;;5087279;28;20408;-76
2024/04/05 05:32:39;;;;;;;0.40;0.30;;;13.50;99.90;;;;;;5102458;28;20678;-75
2024/04/05 05:35:06;;;;;;;0.30;0.23;;;13.60;99.90;;;;;;5087510;28;20433;-75
2024/04/05 05:37:31;;;;;;;0.30;0.20;;;13.60;99.90;;;;;;5102335;28;20224;-75
2024/04/05 05:39:57;;;;;;;2.93;2.83;;;13.60;99.90;;;;;;5100852;28;20933;-75
2024/04/05 05:42:24;;;;;;;0.30;0.20;;;13.70;99.90;;;;;;5102058;28;20511;-76
2024/04/05 05:44:49;;;;;;;0.30;0.20;;;13.70;99.90;;;;;;5102533;28;20668;-74
2024/04/05 05:47:16;;;;;;;0.70;0.70;;;13.80;99.90;;;;;;5086389;28;20660;-74
2024/04/05 05:49:42;;;;;;;0.37;0.37;;;13.90;99.90;;;;;;5085962;28;20196;-77
2024/04/05 05:52:09;;;;;;;0.90;0.90;;;13.90;99.90;;;;;;5085960;28;20972;-74
2024/04/05 05:54:35;;;;;;;3.60;2.27;;;13.90;99.90;;;;;;5086142;28;20750;-74
2024/04/05 05:57:02;;;;;;;0.77;0.60;;;13.90;99.90;;;;;;5086161;28;20546;-74
2024/04/05 05:59:31;;;;;;;2.10;2.00;;;14.00;99.90;;;;;;5085821;28;21010;-74
2024/04/05 06:01:57;;;;;;;1.07;1.07;;;14.10;99.90;;;;;;5085960;28;20661;-74
2024/04/05 06:04:22;;;;;;;0.40;0.23;;;14.20;99.90;;;;;;5086030;28;20421;-75
2024/04/05 06:06:49;;;;;;;0.30;0.20;;;14.30;99.90;;;;;;5085902;28;20473;-75
2024/04/05 06:09:14;;;;;;;0.40;0.30;;;14.40;99.90;;;;;;5085366;28;20249;-75
2024/04/05 06:11:40;;;;;;;0.30;0.20;;;14.50;99.90;;;;;;5085773;28;20425;-74
2024/04/05 06:14:06;;;;;;;0.30;0.20;;;14.60;99.90;;;;;;5101266;28;20192;-74
2024/04/05 06:16:32;;;;;;;0.70;0.70;;;14.70;99.90;;;;;;5085984;28;20425;-74
2024/04/05 06:18:58;;;;;;;2.10;1.50;;;14.80;99.90;;;;;;5085865;28;20524;-74
2024/04/05 06:21:24;;;;;;;0.80;0.80;;;14.80;99.90;;;;;;5086004;28;20453;-74
2024/04/05 06:23:49;;;;;;;0.70;0.70;;;14.90;99.90;;;;;;5085223;28;20188;-74
2024/04/05 06:26:15;;;;;;;1.43;1.33;;;15.00;99.90;;;;;;5100656;28;20357;-75
2024/04/05 06:28:41;;;;;;;0.87;0.60;;;15.20;99.90;;;;;;5100240;28;20253;-75
2024/04/05 06:31:07;;;;;;;0.30;0.30;;;15.30;99.90;;;;;;5085261;28;20494;-75
2024/04/05 06:33:32;;;;;;;0.83;0.83;;;15.40;99.90;;;;;;5100034;28;20231;-78
2024/04/05 06:35:59;;;;;;;0.30;0.20;;;15.50;99.90;;;;;;5085479;28;20906;-78
2024/04/05 06:38:26;;;;;;;0.40;0.30;;;15.60;99.90;;;;;;5099394;28;20204;-79
2024/04/05 06:40:59;;;;;;;0.30;0.30;;;15.70;99.90;;;;;;5083955;28;20409;-78
2024/04/05 06:43:26;;;;;;;0.30;0.20;;;15.80;99.90;;;;;;5083501;28;20440;-73
2024/04/05 06:45:56;;;;;;;1.30;1.20;;;16.00;99.90;;;;;;5084676;28;20429;-75
2024/04/05 06:48:22;;;;;;;0.30;0.20;;;16.10;99.90;;;;;;5099493;28;20469;-77
2024/04/05 06:50:48;;;;;;;0.70;0.70;;;16.30;99.90;;;;;;5100332;28;20899;-75
2024/04/05 06:53:16;;;;;;;1.07;0.57;;;16.40;99.90;;;;;;5082713;28;20441;-74
2024/04/05 06:55:48;;;;;;;0.40;0.30;;;16.50;99.90;;;;;;5083155;28;20511;-75
2024/04/05 06:58:15;;;;;;;0.40;0.40;;;16.70;99.90;;;;;;5084460;28;20463;-74
2024/04/05 07:00:45;;;;;;;0.70;0.70;;;16.80;99.90;;;;;;5084608;28;20497;-74
2024/04/05 07:03:12;;;;;;;0.40;0.30;;;16.90;99.90;;;;;;5084883;28;20481;-74
2024/04/05 07:05:38;;;;;;;0.40;0.40;;;17.10;99.90;;;;;;5081883;28;20874;-75
2024/04/05 07:08:05;;;;;;;0.30;0.20;;;17.20;99.90;;;;;;5082278;28;20448;-74
2024/04/05 07:10:32;;;;;;;0.30;0.20;;;17.20;99.90;;;;;;5079302;28;20417;-74
2024/04/05 07:12:58;;;;;;;0.30;0.20;;;17.40;99.90;;;;;;5081814;28;20793;-73
2024/04/05 07:15:23;;;;;;;0.30;0.20;;;17.50;99.90;;;;;;5083322;28;20402;-73
2024/04/05 07:17:54;;;;;;;0.33;0.30;;;17.60;99.90;;;;;;5083133;28;20258;-74
2024/04/05 07:20:21;;;;;;;0.30;0.30;;;17.80;99.90;;;;;;5082085;28;20162;-74
2024/04/05 07:22:47;;;;;;;0.30;0.20;;;17.90;99.90;;;;;;5082132;28;20594;-74
2024/04/05 07:25:13;;;;;;;0.40;0.40;;;18.00;99.90;;;;;;5082640;28;20970;-74
2024/04/05 07:27:41;;;;;;;0.30;0.20;;;18.10;99.90;;;;;;5081308;28;20226;-73
2024/04/05 07:30:07;;;;;;;0.50;0.50;;;18.30;99.90;;;;;;5079608;28;20897;-71
2024/04/05 07:32:33;;;;;;;1.00;1.00;;;18.40;99.90;;;;;;5079776;28;20460;-71
2024/04/05 07:34:58;;;;;;;0.40;0.40;;;18.50;99.90;;;;;;5079928;28;20400;-71
2024/04/05 07:37:24;;;;;;;0.30;0.30;;;18.60;99.90;;;;;;5080086;28;20231;-71
2024/04/05 07:39:50;;;;;;;0.80;0.80;;;18.70;99.90;;;;;;5080036;28;20196;-73
2024/04/05 07:42:16;;;;;;;0.70;0.70;;;18.80;99.90;;;;;;5081561;28;20275;-74
2024/04/05 07:44:43;;;;;;;0.40;0.40;;;18.90;99.90;;;;;;5065259;28;20424;-72
2024/04/05 07:47:09;;;;;;;0.30;0.30;;;19.00;99.90;;;;;;5080558;28;20481;-72
2024/04/05 07:49:35;;;;;;;0.40;0.30;;;19.10;99.90;;;;;;5081242;28;20430;-71
2024/04/05 07:52:00;;;;;;;0.40;0.30;;;19.30;99.90;;;;;;5080089;28;21134;-74
2024/04/05 07:54:26;;;;;;;0.40;0.20;;;19.40;99.90;;;;;;5079790;28;20190;-74
2024/04/05 07:56:52;;;;;;;2.40;2.20;;;19.50;99.90;;;;;;5080705;28;20168;-74
2024/04/05 07:59:18;;;;;;;0.30;0.20;;;19.70;99.90;;;;;;5080963;28;20406;-72
2024/04/05 08:01:44;;;;;;;0.30;0.20;;;19.80;99.90;;;;;;5080213;28;20753;-71
2024/04/05 08:04:11;;;;;;;0.40;0.40;;;20.00;99.90;;;;;;5082154;28;20509;-71
2024/04/05 08:06:36;;;;;;;0.30;0.20;;;20.10;99.90;;;;;;5083743;28;20705;-71
2024/04/05 08:09:02;;;;;;;4.70;1.43;;;20.20;99.90;;;;;;5082618;28;20440;-71
2024/04/05 08:11:28;;;;;;;0.40;0.40;;;20.30;99.90;;;;;;5083306;28;20188;-71
2024/04/05 08:13:53;;;;;;;0.77;0.70;;;20.50;99.90;;;;;;5083966;28;20232;-71
2024/04/05 08:16:20;;;;;;;0.30;0.20;;;20.70;99.90;;;;;;5084237;28;20184;-71
2024/04/05 08:18:46;;;;;;;0.70;0.50;;;20.80;99.90;;;;;;5083961;28;20273;-72
2024/04/05 08:21:11;;;;;;;0.57;0.47;;;21.00;99.90;;;;;;5083460;28;20945;-71
2024/04/05 08:23:37;;;;;;;0.30;0.20;;;21.20;99.90;;;;;;5083646;28;20184;-71
2024/04/05 08:26:03;;;;;;;0.30;0.30;;;21.30;99.90;;;;;;5084276;28;20626;-72
2024/04/05 08:28:29;;;;;;;0.30;0.20;;;21.50;99.90;;;;;;5083567;28;20495;-71
2024/04/05 08:30:55;;;;;;;0.73;0.73;;;21.70;99.90;;;;;;5083795;28;20164;-72
2024/04/05 08:33:20;;;;;;;0.30;0.20;;;21.80;99.90;;;;;;5084823;28;20200;-71
2024/04/05 08:35:52;;;;;;;0.30;0.20;;;22.00;99.90;;;;;;5086899;28;20251;-74
2024/04/05 08:38:18;;;;;;;0.47;0.40;;;22.20;99.90;;;;;;5086317;28;20205;-74
2024/04/05 08:40:44;;;;;;;0.57;0.57;;;22.50;99.40;;;;;;5102164;28;20412;-74
2024/04/05 08:43:10;;;;;;;0.30;0.20;;;23.20;97.80;;;;;;5085883;28;20229;-74
2024/04/05 08:45:36;;;;;;;0.40;0.20;;;24.20;96.90;;;;;;5103091;28;20454;-75
2024/04/05 08:48:05;;;;;;;0.30;0.20;;;25.10;96.00;;;;;;5102620;28;20437;-73
2024/04/05 08:50:35;;;;;;;0.30;0.30;;;25.70;94.60;;;;;;5087185;28;20518;-72
2024/04/05 08:53:01;;;;;;;0.30;0.20;;;26.40;93.10;;;;;;5086989;28;20436;-75
2024/04/05 08:55:27;;;;;;;0.30;0.30;;;26.70;92.40;;;;;;5087121;28;20393;-75
2024/04/05 08:57:55;;;;;;;0.30;0.30;;;26.60;91.90;;;;;;5084966;28;20856;-75
2024/04/05 09:00:24;;;;;;;0.30;0.20;;;27.10;90.60;;;;;;5101298;28;20500;-73
2024/04/05 09:02:52;;;;;;;0.50;0.50;;;27.20;90.80;;;;;;5100323;28;20492;-72
2024/04/05 09:05:17;;;;;;;0.67;0.67;;;27.30;90.20;;;;;;5100125;28;20778;-72
2024/04/05 09:07:43;;;;;;;0.30;0.20;;;27.40;90.10;;;;;;5084821;28;20442;-72
2024/04/05 09:10:19;;;;;;;0.33;0.30;;;27.70;87.80;;;;;;5084566;28;20648;-72
2024/04/05 09:12:53;;;;;;;0.30;0.20;;;27.70;87.80;;;;;;5100714;28;20756;-72
2024/04/05 09:15:19;;;;;;;0.30;0.20;;;27.70;84.70;;;;;;5102304;28;20454;-72
2024/04/05 09:17:46;;;;;;;0.30;0.20;;;27.60;83.10;;;;;;5071747;28;20879;-74
2024/04/05 09:20:24;;;;;;;0.37;0.37;;;27.40;84.30;;;;;;5086038;28;21088;-75
2024/04/05 09:22:57;;;;;;;0.30;0.20;;;27.40;84.90;;;;;;5102008;28;21023;-74
2024/04/05 09:25:23;;;;;;;0.30;0.20;;;27.20;85.20;;;;;;5086991;28;20384;-74
2024/04/05 09:27:48;;;;;;;0.30;0.20;;;27.20;85.10;;;;;;5086416;28;20658;-74
2024/04/05 09:30:15;;;;;;;0.30;0.20;;;27.30;85.80;;;;;;5086415;28;20740;-70
2024/04/05 09:32:41;;;;;;;0.30;0.20;;;27.30;84.70;;;;;;5086370;28;20197;-72
2024/04/05 09:35:09;;;;;;;0.30;0.20;;;27.30;84.30;;;;;;5083819;28;20514;-73
2024/04/05 09:37:35;;;;;;;0.30;0.20;;;27.20;83.00;;;;;;5083634;28;20401;-72
2024/04/05 09:40:04;;;;;;;0.30;0.20;;;27.00;83.40;;;;;;5084852;28;20927;-72
2024/04/05 09:42:32;;;;;;;3.83;3.37;;;27.00;84.00;;;;;;5082647;28;20846;-72
2024/04/05 09:44:59;;;;;;;0.40;0.40;;;27.10;82.90;;;;;;5083671;28;20510;-72
2024/04/05 09:47:27;;;;;;;0.30;0.30;;;27.00;82.60;;;;;;5084791;28;20965;-71
2024/04/05 09:49:52;;;;;;;0.30;0.30;;;26.60;82.30;;;;;;5085578;28;20413;-72
2024/04/05 09:52:26;;;;;;;0.30;0.20;;;26.20;82.40;;;;;;5085672;28;20775;-71
2024/04/05 09:55:00;;;;;;;0.50;0.50;;;26.00;82.80;;;;;;5085883;28;20521;-71
2024/04/05 09:57:29;;;;;;;0.53;0.53;;;25.90;83.60;;;;;;5081985;28;20432;-74
2024/04/05 09:59:56;;;;;;;0.30;0.20;;;25.80;83.10;;;;;;5081655;28;20486;-71
2024/04/05 10:02:23;;;;;;;0.30;0.20;;;25.80;83.20;;;;;;5080669;28;20515;-71
2024/04/05 10:04:49;;;;;;;0.30;0.20;;;25.70;83.10;;;;;;5082364;28;20481;-71
2024/04/05 10:07:15;;;;;;;0.30;0.20;;;25.70;83.00;;;;;;5083057;28;20417;-71
2024/04/05 10:09:41;;;;;;;0.30;0.20;;;25.60;82.00;;;;;;5081293;28;20961;-72
2024/04/05 10:12:17;;;;;;;0.30;0.20;;;25.60;83.00;;;;;;5082774;28;20181;-71
2024/04/05 10:14:57;;;;;;;0.40;0.40;;;25.50;82.50;;;;;;5084519;28;20909;-74
2024/04/05 10:17:29;;;;;;;4.90;0.50;;;25.40;83.00;;;;;;5082248;28;20448;-74
2024/04/05 10:20:03;;;;;;;0.30;0.20;;;25.40;82.70;;;;;;5082571;28;20493;-74
2024/04/05 10:22:30;;;;;;;0.90;0.70;;;25.30;82.10;;;;;;5083533;28;20508;-74
2024/04/05 10:24:55;;;;;;;0.30;0.20;;;25.20;82.40;;;;;;5084298;28;21011;-74
2024/04/05 10:27:26;;;;;;;0.40;0.30;;;25.10;82.80;;;;;;5083394;28;20578;-74
2024/04/05 10:30:17;;;;;;;0.30;0.30;;;25.20;82.60;;;;;;5085550;28;20440;-72
2024/04/05 10:32:43;;;;;;;0.30;0.20;;;25.00;83.20;;;;;;5082148;28;20555;-74
2024/04/05 10:35:09;;;;;;;0.30;0.20;;;24.80;84.60;;;;;;5084672;28;20520;-71
2024/04/05 10:37:39;;;;;;;0.30;0.20;;;24.40;85.70;;;;;;5082199;28;20287;-74
2024/04/05 10:40:10;;;;;;;0.30;0.20;;;24.10;86.50;;;;;;5080537;28;21029;-74
2024/04/05 10:42:37;;;;;;;0.30;0.20;;;23.90;87.00;;;;;;5081108;28;20516;-74
2024/04/05 10:45:05;;;;;;;0.30;0.20;;;24.20;86.70;;;;;;5080774;28;20405;-76
2024/04/05 10:47:33;;;;;;;0.30;0.30;;;24.40;86.10;;;;;;5077556;28;20509;-75
2024/04/05 10:50:00;;;;;;;0.40;0.40;;;24.70;85.30;;;;;;5076845;28;20508;-75
2024/04/05 10:52:26;;;;;;;0.30;0.20;;;24.80;84.60;;;;;;5079761;28;20444;-75
2024/04/05 10:54:52;;;;;;;0.30;0.20;;;24.90;84.10;;;;;;5080582;28;20686;-77
2024/04/05 10:57:19;;;;;;;0.30;0.20;;;25.00;83.90;;;;;;5082155;28;20762;-73
2024/04/05 10:59:45;;;;;;;0.30;0.20;;;25.00;84.40;;;;;;5081112;28;20421;-73
2024/04/05 11:02:11;;;;;;;0.30;0.20;;;25.00;84.20;;;;;;5069076;28;20475;-72
2024/04/05 11:04:37;;;;;;;0.30;0.20;;;25.00;84.50;;;;;;5078665;28;20184;-73
2024/04/05 11:07:03;;;;;;;0.30;0.20;;;25.10;84.80;;;;;;5076354;28;20641;-72
2024/04/05 11:09:38;;;;;;;0.30;0.20;;;25.10;84.80;;;;;;5072959;28;20647;-73
2024/04/05 11:12:04;;;;;;;0.30;0.20;;;25.20;84.70;;;;;;5074612;28;20325;-74
2024/04/05 11:14:31;;;;;;;4.73;1.30;;;25.10;84.70;;;;;;5070714;28;20592;-77
2024/04/05 11:17:00;;;;;;;0.30;0.20;;;25.10;84.80;;;;;;5077364;28;20545;-76
2024/04/05 11:19:27;;;;;;;0.30;0.20;;;25.10;85.00;;;;;;5073730;28;20452;-73
2024/04/05 11:21:54;;;;;;;0.30;0.20;;;25.10;85.10;;;;;;5078944;28;20504;-73
2024/04/05 11:24:19;;;;;;;0.30;0.20;;;25.10;85.80;;;;;;5072178;28;20589;-72
2024/04/05 11:26:50;;;;;;;0.40;0.40;;;25.20;85.10;;;;;;5079205;28;20727;-74
2024/04/05 11:29:17;;;;;;;0.30;0.20;;;25.20;85.10;;;;;;5071483;28;20200;-75
2024/04/05 11:31:43;;;;;;;0.30;0.20;;;25.20;85.20;;;;;;5081212;28;20428;-73
2024/04/05 11:34:08;;;;;;;0.30;0.23;;;25.30;85.10;;;;;;5072442;28;20416;-71
2024/04/05 11:36:34;;;;;;;0.30;0.30;;;25.30;85.10;;;;;;5078754;28;20180;-72
2024/04/05 11:39:00;;;;;;;0.30;0.20;;;25.40;85.20;;;;;;5071690;28;20621;-73
2024/04/05 11:41:26;;;;;;;0.30;0.20;;;25.40;85.00;;;;;;5075783;28;20216;-73
2024/04/05 11:43:52;;;;;;;0.30;0.20;;;25.20;84.30;;;;;;5080046;28;20689;-73
2024/04/05 11:46:18;;;;;;;0.53;0.53;;;25.30;83.30;;;;;;5079815;28;20413;-73
2024/04/05 11:48:43;;;;;;;0.30;0.20;;;25.40;81.30;;;;;;5080109;28;20200;-73
2024/04/05 11:51:09;;;;;;;0.40;0.40;;;25.40;81.20;;;;;;5080301;28;20219;-73
2024/04/05 11:53:35;;;;;;;0.30;0.20;;;25.40;81.00;;;;;;5081262;28;20622;-73
2024/04/05 11:56:03;;;;;;;0.30;0.20;;;25.50;81.20;;;;;;5080212;28;20815;-72
2024/04/05 11:58:31;;;;;;;0.40;0.40;;;25.60;81.20;;;;;;5074059;28;20457;-73
2024/04/05 12:00:57;;;;;;;0.30;0.20;;;25.70;81.40;;;;;;5078110;28;20783;-73
2024/04/05 12:03:23;;;;;;;0.40;0.40;;;25.70;81.60;;;;;;5076343;28;20550;-73
2024/04/05 12:05:51;;;;;;;0.40;0.40;;;25.80;81.90;;;;;;5076646;28;20429;-74
2024/04/05 12:08:16;;;;;;;0.30;0.20;;;25.90;80.40;;;;;;5076856;28;20215;-73
2024/04/05 12:10:42;;;;;;;0.30;0.20;;;26.00;80.00;;;;;;5080617;28;20413;-73
2024/04/05 12:13:07;;;;;;;0.40;0.30;;;26.00;79.60;;;;;;5080787;28;20231;-73
2024/04/05 12:15:37;;;;;;;0.30;0.30;;;26.10;80.10;;;;;;5080871;28;20222;-73
2024/04/05 12:18:06;;;;;;;0.30;0.20;;;26.10;78.80;;;;;;5078486;28;20204;-73
2024/04/05 12:20:31;;;;;;;0.30;0.20;;;26.10;78.60;;;;;;5078021;28;20424;-73
2024/04/05 12:22:57;;;;;;;0.30;0.30;;;26.00;79.00;;;;;;5082865;28;20475;-73
2024/04/05 12:25:24;;;;;;;0.30;0.20;;;26.00;79.00;;;;;;5085084;28;20213;-74
2024/04/05 12:27:49;;;;;;;0.30;0.20;;;26.00;79.10;;;;;;5080508;28;20192;-74
2024/04/05 12:30:15;;;;;;;0.30;0.20;;;26.00;79.30;;;;;;5082333;28;20424;-74
2024/04/05 12:32:41;;;;;;;0.30;0.20;;;26.10;79.50;;;;;;5082061;28;20226;-74
2024/04/05 12:35:07;;;;;;;0.30;0.20;;;26.10;79.30;;;;;;5076575;28;20184;-74
2024/04/05 12:37:37;;;;;;;0.30;0.20;;;26.10;79.10;;;;;;5074318;28;20192;-73
2024/04/05 12:40:14;;;;;;;0.40;0.40;;;26.10;78.50;;;;;;5077252;28;20195;-73
2024/04/05 12:42:39;;;;;;;0.30;0.20;;;26.10;78.30;;;;;;5073122;28;20475;-73
2024/04/05 12:45:08;;;;;;;0.30;0.20;;;26.10;78.60;;;;;;5076151;28;21158;-74